Terminal Aerodrome Forecast
Issued by NWS Knoxville/Tri Cities, TN

Home | Current Version | Previous Version | Text Only | Print | Product List | Glossary On
Versions: 1 2 3 4 5 6 7 8 9 10 11 12 13 14 15 16 17 18 19
000
FTUS44 KMRX 271728
TAFTYS
TAF
KTYS 271728Z 2718/2818 VRB04KT P6SM BKN060 OVC100
     FM280100 23003KT P6SM -RA BKN050 OVC080
     FM280700 VRB03KT 4SM -RA BR BKN015 OVC030
     FM281200 25005KT 2SM RA BR OVC006=

USA.gov is the U.S. government's official web portal to all federal, state and local government web resources and services.